createdAt,value
2023-05-10T00:00:26.451Z,3.10
2023-05-10T00:05:45.894Z,2.70
2023-05-10T00:10:49.037Z,2.70
2023-05-10T00:15:52.219Z,2.40
2023-05-10T00:20:55.325Z,3.10
2023-05-10T00:25:58.437Z,2.80
2023-05-10T00:31:01.878Z,3.60
2023-05-10T00:36:05.137Z,3.10
2023-05-10T00:41:08.298Z,3.10
2023-05-10T00:46:11.468Z,3.30
2023-05-10T00:51:15.090Z,3.00
2023-05-10T00:56:18.592Z,2.60
2023-05-10T01:01:21.771Z,3.20
2023-05-10T01:06:24.998Z,3.00
2023-05-10T01:11:28.081Z,3.40
2023-05-10T01:16:34.150Z,2.80
2023-05-10T01:21:45.648Z,3.30
2023-05-10T01:27:07.153Z,3.40
2023-05-10T01:32:17.985Z,3.20
2023-05-10T01:37:23.058Z,3.30
2023-05-10T01:42:28.681Z,2.80
2023-05-10T01:47:35.570Z,3.40
2023-05-10T01:52:42.271Z,3.40
2023-05-10T01:57:47.789Z,3.20
2023-05-10T02:02:52.017Z,3.30
2023-05-10T02:07:55.536Z,3.10
2023-05-10T02:13:00.202Z,3.20
2023-05-10T02:18:04.309Z,2.90
2023-05-10T02:23:08.679Z,3.50
2023-05-10T02:28:13.402Z,3.80
2023-05-10T02:33:16.817Z,3.40
2023-05-10T02:38:22.516Z,3.00
2023-05-10T02:43:26.071Z,2.80
2023-05-10T02:48:29.584Z,2.70
2023-05-10T02:53:34.706Z,3.00
2023-05-10T02:58:37.959Z,2.90
2023-05-10T03:03:41.448Z,3.20
2023-05-10T03:08:45.737Z,3.10
2023-05-10T03:14:00.963Z,3.30
2023-05-10T03:19:10.956Z,3.10
2023-05-10T03:24:16.890Z,3.40
2023-05-10T03:29:20.950Z,2.90
2023-05-10T03:34:27.132Z,3.40
2023-05-10T03:39:30.671Z,3.00
2023-05-10T03:44:34.748Z,3.30
2023-05-10T03:49:38.028Z,3.80
2023-05-10T03:54:41.158Z,3.20
2023-05-10T03:59:44.274Z,3.20
2023-05-10T04:04:49.639Z,3.60
2023-05-10T04:09:52.795Z,3.60
2023-05-10T04:14:56.011Z,3.30
2023-05-10T04:19:59.267Z,3.30
2023-05-10T04:25:03.499Z,3.50
2023-05-10T04:30:08.445Z,3.70
2023-05-10T04:35:12.010Z,3.60
2023-05-10T04:40:15.598Z,3.60
2023-05-10T04:45:19.129Z,3.50
2023-05-10T04:50:25.455Z,4.20
2023-05-10T04:55:28.676Z,3.70
2023-05-10T05:00:31.872Z,3.80
2023-05-10T05:05:36.057Z,4.70
2023-05-10T05:10:39.261Z,3.80
2023-05-10T05:15:42.442Z,3.90
2023-05-10T05:20:45.959Z,3.60
2023-05-10T05:25:49.265Z,3.60
2023-05-10T05:30:52.566Z,3.70
2023-05-10T05:35:55.808Z,3.60
2023-05-10T05:40:58.988Z,3.70
2023-05-10T05:46:02.342Z,3.80
2023-05-10T05:51:07.279Z,3.50
2023-05-10T05:56:16.799Z,3.50
2023-05-10T06:01:20.789Z,3.50
2023-05-10T06:06:24.386Z,3.80
2023-05-10T06:11:30.664Z,3.30
2023-05-10T06:16:36.782Z,3.20
2023-05-10T06:21:40.340Z,3.30
2023-05-10T06:26:43.656Z,3.00
2023-05-10T06:31:47.712Z,3.10
2023-05-10T06:36:51.055Z,3.30
2023-05-10T06:41:54.537Z,3.30
2023-05-10T06:46:57.696Z,3.10
2023-05-10T06:52:00.999Z,2.80
2023-05-10T06:57:08.786Z,3.20
2023-05-10T07:02:17.002Z,2.80
2023-05-10T07:07:26.426Z,2.40
2023-05-10T07:12:29.859Z,2.50
2023-05-10T07:17:34.819Z,2.10
2023-05-10T07:22:38.003Z,2.60
2023-05-10T07:27:41.282Z,2.50
2023-05-10T07:32:44.679Z,2.20
2023-05-10T07:37:51.228Z,2.40
2023-05-10T07:42:54.512Z,2.40
2023-05-10T07:47:57.760Z,2.10
2023-05-10T07:53:01.631Z,2.30
2023-05-10T07:58:06.619Z,2.30
2023-05-10T08:03:10.329Z,2.60
2023-05-10T08:08:16.908Z,2.80
2023-05-10T08:13:20.086Z,2.30
2023-05-10T08:18:23.334Z,2.90
2023-05-10T08:23:27.462Z,2.40
2023-05-10T08:28:33.806Z,2.60
2023-05-10T08:33:37.094Z,2.50
2023-05-10T08:38:40.345Z,2.30
2023-05-10T08:43:47.719Z,2.40
2023-05-10T08:48:51.930Z,2.60
2023-05-10T08:53:58.488Z,2.20
2023-05-10T08:59:02.474Z,2.30
2023-05-10T09:04:05.951Z,2.60
2023-05-10T09:09:09.296Z,2.20
2023-05-10T09:14:14.411Z,2.20
2023-05-10T09:19:17.548Z,2.40
2023-05-10T09:24:20.770Z,2.10
2023-05-10T09:29:24.124Z,2.20
2023-05-10T09:34:33.619Z,1.90
2023-05-10T09:39:38.051Z,2.00
2023-05-10T09:44:42.321Z,1.80
2023-05-10T09:49:45.639Z,1.90
2023-05-10T09:54:54.383Z,2.30
2023-05-10T09:59:59.287Z,1.90
2023-05-10T10:05:05.248Z,2.00
2023-05-10T10:10:12.752Z,1.90
2023-05-10T10:15:16.938Z,1.90
2023-05-10T10:20:21.537Z,1.90
2023-05-10T10:25:26.637Z,1.80
2023-05-10T10:30:36.966Z,1.90
2023-05-10T10:35:40.564Z,1.90
2023-05-10T10:40:43.792Z,1.60
2023-05-10T10:46:08.038Z,1.90
2023-05-10T10:51:12.897Z,1.80
2023-05-10T10:56:17.126Z,1.60
2023-05-10T11:01:21.058Z,2.00
2023-05-10T11:06:34.912Z,1.70
2023-05-10T11:11:49.525Z,1.50
2023-05-10T11:16:59.782Z,1.90
2023-05-10T11:22:06.040Z,1.50
2023-05-10T11:27:09.265Z,1.60
2023-05-10T11:32:12.493Z,1.50
2023-05-10T11:37:15.692Z,1.30
2023-05-10T11:42:25.007Z,1.50
2023-05-10T11:47:28.347Z,1.50
2023-05-10T11:52:37.223Z,1.40
2023-05-10T11:57:42.556Z,1.40
2023-05-10T12:02:46.951Z,1.40
2023-05-10T12:07:50.190Z,1.20
2023-05-10T12:12:53.830Z,1.70
2023-05-10T12:17:58.319Z,1.70
2023-05-10T12:23:04.423Z,1.60
2023-05-10T12:28:09.369Z,1.70
2023-05-10T12:33:15.650Z,1.40
2023-05-10T12:38:33.373Z,1.30
2023-05-10T12:43:37.044Z,1.60
2023-05-10T12:48:41.400Z,1.40
2023-05-10T12:53:49.366Z,1.60
2023-05-10T12:58:52.856Z,1.50
2023-05-10T13:03:55.965Z,1.60
2023-05-10T13:08:59.155Z,1.20
2023-05-10T13:14:04.656Z,1.50
2023-05-10T13:19:08.163Z,1.40
2023-05-10T13:24:11.927Z,1.30
2023-05-10T13:29:15.134Z,1.40
2023-05-10T13:34:21.689Z,1.40
2023-05-10T13:39:25.549Z,1.70
2023-05-10T13:44:30.262Z,1.20
2023-05-10T13:49:33.834Z,1.50
2023-05-10T13:54:39.239Z,1.40
2023-05-10T13:59:42.355Z,1.20
2023-05-10T14:04:46.107Z,1.40
2023-05-10T14:09:49.286Z,1.30
2023-05-10T14:14:53.461Z,1.50
2023-05-10T14:19:57.359Z,1.20
2023-05-10T14:25:00.609Z,1.60
2023-05-10T14:30:03.825Z,1.30
2023-05-10T14:35:07.394Z,1.30
2023-05-10T14:40:10.997Z,1.60
2023-05-10T14:45:14.189Z,1.30
2023-05-10T14:50:35.272Z,1.30
2023-05-10T14:55:40.721Z,1.50
2023-05-10T15:00:44.753Z,1.20
2023-05-10T15:05:48.322Z,1.20
2023-05-10T15:10:52.223Z,1.20
2023-05-10T15:15:55.384Z,1.60
2023-05-10T15:20:59.922Z,1.40
2023-05-10T15:26:04.065Z,1.50
2023-05-10T15:31:07.249Z,1.70
2023-05-10T15:36:10.408Z,1.80
2023-05-10T15:41:13.464Z,1.30
2023-05-10T15:46:16.659Z,1.70
2023-05-10T15:51:20.065Z,1.50
2023-05-10T15:56:23.454Z,1.70
2023-05-10T16:01:26.754Z,1.80
2023-05-10T16:06:30.638Z,1.40
2023-05-10T16:11:33.836Z,2.00
2023-05-10T16:16:37.088Z,1.30
2023-05-10T16:21:40.447Z,1.50
2023-05-10T16:26:43.715Z,1.20
2023-05-10T16:31:47.293Z,1.40
2023-05-10T16:36:51.397Z,1.90
2023-05-10T16:41:55.628Z,1.30
2023-05-10T16:46:59.268Z,1.20
2023-05-10T16:52:02.574Z,1.30
2023-05-10T16:57:05.726Z,1.50
2023-05-10T17:02:08.857Z,1.30
2023-05-10T17:07:13.518Z,1.50
2023-05-10T17:12:16.638Z,1.60
2023-05-10T17:17:19.828Z,1.10
2023-05-10T17:22:24.292Z,1.60
2023-05-10T17:27:29.275Z,1.70
2023-05-10T17:32:34.553Z,1.40
2023-05-10T17:37:37.784Z,1.40
2023-05-10T17:42:41.296Z,1.60
2023-05-10T17:47:44.566Z,1.60
2023-05-10T17:52:48.453Z,1.50
2023-05-10T17:57:52.151Z,1.50
2023-05-10T18:02:55.532Z,2.10
2023-05-10T18:07:59.427Z,2.10
2023-05-10T18:13:02.880Z,2.00
2023-05-10T18:18:06.298Z,2.00
2023-05-10T18:23:09.492Z,1.80
2023-05-10T18:28:12.664Z,1.80
2023-05-10T18:33:16.579Z,1.90
2023-05-10T18:38:19.878Z,2.30
2023-05-10T18:43:23.011Z,2.10
2023-05-10T18:48:26.150Z,2.50
2023-05-10T18:53:29.336Z,3.20
2023-05-10T18:58:34.014Z,2.90
2023-05-10T19:03:37.106Z,3.70
2023-05-10T19:08:40.715Z,4.20
2023-05-10T19:13:45.831Z,3.70
2023-05-10T19:18:50.842Z,2.90
2023-05-10T19:23:54.406Z,3.00
2023-05-10T19:28:58.252Z,2.70
2023-05-10T19:34:01.629Z,2.80
2023-05-10T19:39:04.887Z,3.10
2023-05-10T19:44:08.807Z,4.40
2023-05-10T19:49:12.062Z,4.70
2023-05-10T19:54:15.300Z,5.30
2023-05-10T19:59:18.497Z,5.50
2023-05-10T20:04:22.156Z,7.30
2023-05-10T20:09:26.418Z,7.50
2023-05-10T20:14:29.638Z,8.30
2023-05-10T20:19:32.884Z,9.80
2023-05-10T20:24:36.588Z,11.20
2023-05-10T20:29:39.795Z,18.70
2023-05-10T20:34:42.939Z,16.80
2023-05-10T20:39:49.801Z,14.20
2023-05-10T20:44:53.833Z,8.10
2023-05-10T20:50:01.123Z,10.30
2023-05-10T20:55:04.393Z,9.20
2023-05-10T21:00:09.698Z,13.20
2023-05-10T21:05:13.285Z,16.10
2023-05-10T21:10:17.558Z,8.50
2023-05-10T21:15:22.859Z,9.30
2023-05-10T21:20:26.150Z,8.30
2023-05-10T21:25:29.286Z,8.20
2023-05-10T21:30:33.122Z,8.30
2023-05-10T21:35:36.256Z,6.60
2023-05-10T21:40:40.244Z,6.50
2023-05-10T21:45:43.543Z,7.10
2023-05-10T21:50:48.444Z,9.30
2023-05-10T21:55:51.637Z,5.60
2023-05-10T22:00:54.980Z,4.40
2023-05-10T22:05:58.254Z,3.60
2023-05-10T22:11:02.096Z,3.30
2023-05-10T22:16:05.290Z,2.80
2023-05-10T22:21:09.445Z,2.50
2023-05-10T22:26:12.760Z,2.50
2023-05-10T22:31:15.970Z,2.70
2023-05-10T22:36:19.184Z,3.00
2023-05-10T22:41:23.533Z,2.50
2023-05-10T22:46:26.765Z,2.70
2023-05-10T22:51:29.920Z,2.90
2023-05-10T22:56:33.442Z,2.70
2023-05-10T23:01:36.601Z,2.40
2023-05-10T23:06:39.886Z,2.80
2023-05-10T23:11:43.867Z,2.60
2023-05-10T23:16:47.176Z,2.60
2023-05-10T23:21:50.464Z,2.50
2023-05-10T23:26:53.545Z,2.30
2023-05-10T23:31:56.684Z,2.50
2023-05-10T23:36:59.818Z,2.80
2023-05-10T23:42:03.589Z,2.90
2023-05-10T23:47:07.472Z,2.40
2023-05-10T23:52:10.594Z,3.20
2023-05-10T23:57:13.870Z,3.50
